Krypton, Kentucky
Current Conditions -  °F | °C
As of 3:53 PM on Sunday 21 Dec 2014 (Local Time) from KJKL Reporting Station
Clear Clear  
Wind Chill:   Ceiling: Unl
Heat Index:   Visibility: 10mi
Dew Point: -3°   Wind: 3mph
Humidity: 49%   Direction: NA
Pressure: 30.13"   Gusts: NA
Location:  37.31°N, 83.34°W
Report Text: KJKL 212053Z AUTO VRB03KT 10SM CLR 07/M03 A3013 RMK AO2 SLP211 T00671033 58020
Loading
Personal Weather Stations






























Interactive Weather Map New forecast layout! Learn more

10-Day Weather Forecast

Advertisements
Track Severe Weather on mobile